createdAt,value
2018-06-01T00:00:10.152Z,88.77
2018-06-01T00:02:38.317Z,89.05
2018-06-01T00:05:06.488Z,89.65
2018-06-01T00:07:34.649Z,89.40
2018-06-01T00:10:02.817Z,89.21
2018-06-01T00:12:30.986Z,89.35
2018-06-01T00:14:59.162Z,89.63
2018-06-01T00:17:27.352Z,89.70
2018-06-01T00:19:55.534Z,89.87
2018-06-01T00:22:23.742Z,89.85
2018-06-01T00:24:51.888Z,90.25
2018-06-01T00:27:21.147Z,90.30
2018-06-01T00:29:49.341Z,90.56
2018-06-01T00:32:17.848Z,90.62
2018-06-01T00:34:46.045Z,90.58
2018-06-01T00:37:14.212Z,90.63
2018-06-01T00:39:42.387Z,90.40
2018-06-01T00:42:10.558Z,90.45
2018-06-01T00:44:38.731Z,90.21
2018-06-01T00:47:06.900Z,90.24
2018-06-01T00:49:35.062Z,90.35
2018-06-01T00:52:03.858Z,89.96
2018-06-01T00:54:49.872Z,90.01
2018-06-01T00:57:18.051Z,89.89
2018-06-01T00:59:47.054Z,89.58
2018-06-01T01:02:21.766Z,89.65
2018-06-01T01:04:49.910Z,89.19
2018-06-01T01:07:18.117Z,89.15
2018-06-01T01:09:46.276Z,89.23
2018-06-01T01:14:47.049Z,88.28
2018-06-01T01:17:19.168Z,88.33
2018-06-01T01:19:48.270Z,88.20
2018-06-01T01:22:16.436Z,88.21
2018-06-01T01:24:44.637Z,88.29
2018-06-01T01:27:12.764Z,88.09
2018-06-01T01:29:40.937Z,88.40
2018-06-01T01:32:23.976Z,88.05
2018-06-01T01:34:52.157Z,87.94
2018-06-01T01:37:31.193Z,87.66
2018-06-01T01:39:59.377Z,87.10
2018-06-01T01:42:28.485Z,87.32
2018-06-01T01:44:56.667Z,86.94
2018-06-01T01:47:24.833Z,87.27
2018-06-01T01:49:53.815Z,87.09
2018-06-01T01:52:21.996Z,87.01
2018-06-01T01:54:50.168Z,87.39
2018-06-01T01:57:18.512Z,87.67
2018-06-01T01:59:46.678Z,87.13
2018-06-01T02:02:14.846Z,87.35
2018-06-01T02:04:43.031Z,87.52
2018-06-01T02:07:12.082Z,87.42
2018-06-01T02:09:40.278Z,87.46
2018-06-01T02:12:08.419Z,87.43
2018-06-01T02:14:36.636Z,87.42
2018-06-01T02:17:04.891Z,87.39
2018-06-01T02:19:33.090Z,87.49
2018-06-01T02:22:01.268Z,87.42
2018-06-01T02:24:29.490Z,87.52
2018-06-01T02:26:57.618Z,87.68
2018-06-01T02:29:25.772Z,87.87
2018-06-01T02:31:53.949Z,88.11
2018-06-01T02:34:23.895Z,88.17
2018-06-01T02:36:52.090Z,88.32
2018-06-01T02:39:20.249Z,88.53
2018-06-01T02:41:48.849Z,88.59
2018-06-01T02:44:16.992Z,88.31
2018-06-01T02:46:45.157Z,88.71
2018-06-01T02:49:13.313Z,88.58
2018-06-01T02:51:41.509Z,88.59
2018-06-01T02:54:09.673Z,88.52
2018-06-01T02:56:37.817Z,88.65
2018-06-01T02:59:05.993Z,88.69
2018-06-01T03:01:34.158Z,88.79
2018-06-01T03:04:02.350Z,88.94
2018-06-01T03:06:42.111Z,88.93
2018-06-01T03:09:10.283Z,89.04
2018-06-01T03:11:38.425Z,88.89
2018-06-01T03:14:06.573Z,89.05
2018-06-01T03:16:34.751Z,89.06
2018-06-01T03:19:02.945Z,89.07
2018-06-01T03:21:31.890Z,88.68
2018-06-01T03:24:00.590Z,88.43
2018-06-01T03:26:28.753Z,88.55
2018-06-01T03:28:56.905Z,87.98
2018-06-01T03:31:25.065Z,87.31
2018-06-01T03:33:53.215Z,87.51
2018-06-01T03:36:22.082Z,87.41
2018-06-01T03:38:50.240Z,86.86
2018-06-01T03:41:18.411Z,87.00
2018-06-01T03:43:46.583Z,87.03
2018-06-01T03:46:14.725Z,87.16
2018-06-01T03:48:42.903Z,87.16
2018-06-01T03:51:11.057Z,87.36
2018-06-01T03:53:39.258Z,86.89
2018-06-01T03:56:07.423Z,86.74
2018-06-01T03:58:35.914Z,86.93
2018-06-01T04:01:04.076Z,87.05
2018-06-01T04:03:32.270Z,86.63
2018-06-01T04:06:00.455Z,86.70
2018-06-01T04:08:28.626Z,86.51
2018-06-01T04:10:56.784Z,86.39
2018-06-01T04:13:24.997Z,86.65
2018-06-01T04:15:53.177Z,87.05
2018-06-01T04:18:22.891Z,86.83
2018-06-01T04:20:51.067Z,86.59
2018-06-01T04:23:19.218Z,86.52
2018-06-01T04:25:47.402Z,86.03
2018-06-01T04:28:15.534Z,86.53
2018-06-01T04:30:45.456Z,86.48
2018-06-01T04:33:13.974Z,86.67
2018-06-01T04:35:42.122Z,85.96
2018-06-01T04:38:10.280Z,86.68
2018-06-01T04:40:38.447Z,86.32
2018-06-01T04:43:06.620Z,86.11
2018-06-01T04:45:34.794Z,86.39
2018-06-01T04:48:02.966Z,86.55
2018-06-01T04:50:31.154Z,86.88
2018-06-01T04:52:59.332Z,87.19
2018-06-01T04:55:27.486Z,87.06
2018-06-01T04:57:55.636Z,87.56
2018-06-01T05:00:25.444Z,86.87
2018-06-01T05:02:53.589Z,86.67
2018-06-01T05:05:22.744Z,86.57
2018-06-01T05:07:50.906Z,86.38
2018-06-01T05:10:19.080Z,86.45
2018-06-01T05:12:47.231Z,86.46
2018-06-01T05:15:15.431Z,86.55
2018-06-01T05:17:43.924Z,85.68
2018-06-01T05:20:15.832Z,86.06
2018-06-01T05:22:44.016Z,86.14
2018-06-01T05:25:12.210Z,86.15
2018-06-01T05:27:41.376Z,85.78
2018-06-01T05:30:09.924Z,84.81
2018-06-01T05:32:38.078Z,85.63
2018-06-01T05:35:06.245Z,85.10
2018-06-01T05:37:34.418Z,85.77
2018-06-01T05:40:02.578Z,85.80
2018-06-01T05:42:30.736Z,85.80
2018-06-01T05:44:58.878Z,84.69
2018-06-01T05:47:27.048Z,84.03
2018-06-01T05:49:55.212Z,84.56
2018-06-01T05:52:23.354Z,84.58
2018-06-01T05:54:51.522Z,83.70
2018-06-01T05:57:19.718Z,83.59
2018-06-01T05:59:47.890Z,83.46
2018-06-01T06:02:19.934Z,83.16
2018-06-01T06:04:48.076Z,83.05
2018-06-01T06:07:16.239Z,82.52
2018-06-01T06:09:44.406Z,83.14
2018-06-01T06:12:12.552Z,82.44
2018-06-01T06:14:40.712Z,82.72
2018-06-01T06:17:14.823Z,82.01
2018-06-01T06:19:42.962Z,82.27
2018-06-01T06:22:11.141Z,82.88
2018-06-01T06:24:40.774Z,81.87
2018-06-01T06:27:08.936Z,80.93
2018-06-01T06:29:37.096Z,81.81
2018-06-01T06:32:05.272Z,80.38
2018-06-01T06:34:33.410Z,79.20
2018-06-01T06:37:01.588Z,79.51
2018-06-01T06:39:29.758Z,79.40
2018-06-01T06:41:57.906Z,78.57
2018-06-01T06:44:29.440Z,79.50
2018-06-01T06:46:57.596Z,79.63
2018-06-01T06:49:38.417Z,78.27
2018-06-01T06:52:06.582Z,79.19
2018-06-01T06:54:38.623Z,79.65
2018-06-01T06:57:06.793Z,79.39
2018-06-01T06:59:34.966Z,79.94
2018-06-01T07:02:03.170Z,79.95
2018-06-01T07:04:31.380Z,79.10
2018-06-01T07:07:00.830Z,79.02
2018-06-01T07:09:28.991Z,79.72
2018-06-01T07:11:57.162Z,79.80
2018-06-01T07:14:25.319Z,80.37
2018-06-01T07:16:53.856Z,78.68
2018-06-01T07:19:22.032Z,79.63
2018-06-01T07:21:50.192Z,78.65
2018-06-01T07:24:21.395Z,79.22
2018-06-01T07:26:49.566Z,79.88
2018-06-01T07:29:17.770Z,79.16
2018-06-01T07:31:45.939Z,79.06
2018-06-01T07:34:14.915Z,78.98
2018-06-01T07:36:43.542Z,77.98
2018-06-01T07:39:11.704Z,77.51
2018-06-01T07:41:39.854Z,77.14
2018-06-01T07:44:08.035Z,77.14
2018-06-01T07:46:36.198Z,76.59
2018-06-01T07:49:04.380Z,77.17
2018-06-01T07:51:32.550Z,76.11
2018-06-01T07:54:00.695Z,76.69
2018-06-01T07:56:28.875Z,75.79
2018-06-01T07:58:57.071Z,76.24
2018-06-01T08:01:25.242Z,75.45
2018-06-01T08:03:53.380Z,75.82
2018-06-01T08:06:22.521Z,75.63
2018-06-01T08:08:50.702Z,76.39
2018-06-01T08:11:18.855Z,75.48
2018-06-01T08:13:47.349Z,76.23
2018-06-01T08:16:16.096Z,76.87
2018-06-01T08:18:44.271Z,76.83
2018-06-01T08:21:13.615Z,76.10
2018-06-01T08:23:41.767Z,75.72
2018-06-01T08:26:10.013Z,76.59
2018-06-01T08:28:41.963Z,75.29
2018-06-01T08:31:10.105Z,74.05
2018-06-01T08:33:38.255Z,75.67
2018-06-01T08:36:06.434Z,72.79
2018-06-01T08:38:34.597Z,74.21
2018-06-01T08:41:02.771Z,73.47
2018-06-01T08:43:30.940Z,74.38
2018-06-01T08:46:00.546Z,72.01
2018-06-01T08:48:28.692Z,71.74
2018-06-01T08:50:56.843Z,73.75
2018-06-01T08:53:29.223Z,70.91
2018-06-01T08:55:57.365Z,70.94
2018-06-01T08:58:25.536Z,70.36
2018-06-01T09:00:53.678Z,70.58
2018-06-01T09:03:21.969Z,70.67
2018-06-01T09:05:50.117Z,70.11
2018-06-01T09:08:18.285Z,70.60
2018-06-01T09:10:46.436Z,71.17
2018-06-01T09:13:14.581Z,69.65
2018-06-01T09:15:42.761Z,70.11
2018-06-01T09:18:10.943Z,69.83
2018-06-01T09:20:39.099Z,68.24
2018-06-01T09:25:42.165Z,70.75
2018-06-01T09:28:10.369Z,69.95
2018-06-01T09:30:38.544Z,70.38
2018-06-01T09:33:06.717Z,70.33
2018-06-01T09:35:34.901Z,68.18
2018-06-01T09:38:03.063Z,68.52
2018-06-01T09:40:31.236Z,68.11
2018-06-01T09:42:59.383Z,68.38
2018-06-01T09:45:27.552Z,68.30
2018-06-01T09:47:55.715Z,69.00
2018-06-01T09:50:29.775Z,66.61
2018-06-01T09:52:57.928Z,66.47
2018-06-01T09:55:26.115Z,66.24
2018-06-01T09:57:54.296Z,67.69
2018-06-01T10:00:28.029Z,66.87
2018-06-01T10:02:56.220Z,67.79
2018-06-01T10:05:24.441Z,65.06
2018-06-01T10:07:52.597Z,65.91
2018-06-01T10:10:26.353Z,67.77
2018-06-01T10:12:54.512Z,66.99
2018-06-01T10:15:22.683Z,66.63
2018-06-01T10:17:50.831Z,66.20
2018-06-01T10:20:19.008Z,66.76
2018-06-01T10:22:47.155Z,66.43
2018-06-01T10:25:15.323Z,68.77
2018-06-01T10:27:43.470Z,66.68
2018-06-01T10:30:11.653Z,61.55
2018-06-01T10:32:39.819Z,63.90
2018-06-01T10:35:08.706Z,63.99
2018-06-01T10:40:09.739Z,64.00
2018-06-01T10:42:37.911Z,62.57
2018-06-01T10:45:08.269Z,62.94
2018-06-01T10:50:09.228Z,62.64
2018-06-01T10:52:37.444Z,60.77
2018-06-01T10:57:38.382Z,59.54
2018-06-01T11:00:06.549Z,61.63
2018-06-01T11:02:36.809Z,60.51
2018-06-01T11:05:04.981Z,61.73
2018-06-01T11:07:33.159Z,59.70
2018-06-01T11:10:01.329Z,59.62
2018-06-01T11:12:29.471Z,60.41
2018-06-01T11:14:57.635Z,61.31
2018-06-01T11:17:26.140Z,57.88
2018-06-01T11:19:54.395Z,59.24
2018-06-01T11:22:22.558Z,58.31
2018-06-01T11:24:50.745Z,58.26
2018-06-01T11:27:18.910Z,58.23
2018-06-01T11:29:48.136Z,58.92
2018-06-01T11:32:22.671Z,55.65
2018-06-01T11:34:50.812Z,55.69
2018-06-01T11:37:18.959Z,56.97
2018-06-01T11:39:47.117Z,58.58
2018-06-01T11:42:15.297Z,61.71
2018-06-01T11:44:43.463Z,57.15
2018-06-01T11:47:11.686Z,58.25
2018-06-01T11:49:39.844Z,60.64
2018-06-01T11:52:08.013Z,58.70
2018-06-01T11:54:36.160Z,56.34
2018-06-01T11:57:04.333Z,56.98
2018-06-01T11:59:32.499Z,57.93
2018-06-01T12:02:00.668Z,54.69
2018-06-01T12:04:28.830Z,56.51
2018-06-01T12:06:57.007Z,57.54
2018-06-01T12:09:25.183Z,57.43
2018-06-01T12:11:53.343Z,57.15
2018-06-01T12:14:21.509Z,55.97
2018-06-01T12:16:49.764Z,57.35
2018-06-01T12:19:24.829Z,55.31
2018-06-01T12:21:52.980Z,55.68
2018-06-01T12:24:22.685Z,54.73
2018-06-01T12:26:50.850Z,58.30
2018-06-01T12:29:25.907Z,57.51
2018-06-01T12:31:54.080Z,55.85
2018-06-01T12:34:22.248Z,54.71
2018-06-01T12:36:50.461Z,56.06
2018-06-01T12:39:19.513Z,54.43
2018-06-01T12:41:47.689Z,55.59
2018-06-01T12:44:15.839Z,57.15
2018-06-01T12:46:44.002Z,55.30
2018-06-01T12:49:12.151Z,52.30
2018-06-01T12:51:40.329Z,55.50
2018-06-01T12:54:08.564Z,54.98
2018-06-01T12:56:36.712Z,50.32
2018-06-01T12:59:04.866Z,53.61
2018-06-01T13:01:33.057Z,53.22
2018-06-01T13:04:01.229Z,53.75
2018-06-01T13:06:29.397Z,50.37
2018-06-01T13:08:57.658Z,51.48
2018-06-01T13:11:25.837Z,53.80
2018-06-01T13:13:53.997Z,52.45
2018-06-01T13:16:22.169Z,48.99
2018-06-01T13:18:52.090Z,51.30
2018-06-01T13:21:20.637Z,50.80
2018-06-01T13:23:48.806Z,51.38
2018-06-01T13:26:16.949Z,50.44
2018-06-01T13:28:45.194Z,49.34
2018-06-01T13:31:13.335Z,50.42
2018-06-01T13:33:41.507Z,50.36
2018-06-01T13:36:09.692Z,52.34
2018-06-01T13:38:37.836Z,51.55
2018-06-01T13:41:06.024Z,50.42
2018-06-01T13:43:34.208Z,49.86
2018-06-01T13:46:02.391Z,48.83
2018-06-01T13:48:30.556Z,51.25
2018-06-01T13:51:02.556Z,52.19
2018-06-01T13:53:30.723Z,47.93
2018-06-01T13:55:59.875Z,45.41
2018-06-01T14:00:32.101Z,44.19
2018-06-01T14:03:00.257Z,44.37
2018-06-01T14:05:28.420Z,42.08
2018-06-01T14:07:56.597Z,44.73
2018-06-01T14:10:25.613Z,41.65
2018-06-01T14:12:53.813Z,45.75
2018-06-01T14:15:21.964Z,46.51
2018-06-01T14:17:50.147Z,39.54
2018-06-01T14:20:18.342Z,40.09
2018-06-01T14:22:46.518Z,41.95
2018-06-01T14:25:17.478Z,38.06
2018-06-01T14:27:45.627Z,41.67
2018-06-01T14:30:17.748Z,45.37
2018-06-01T14:32:45.981Z,45.94
2018-06-01T14:35:14.204Z,44.40
2018-06-01T14:37:42.392Z,46.14
2018-06-01T14:40:13.326Z,47.56
2018-06-01T14:42:41.508Z,45.34
2018-06-01T14:45:09.717Z,44.26
2018-06-01T14:47:37.878Z,46.90
2018-06-01T14:50:06.043Z,47.78
2018-06-01T14:52:34.211Z,46.87
2018-06-01T14:55:02.359Z,45.36
2018-06-01T14:57:30.551Z,41.45
2018-06-01T14:59:58.696Z,39.67
2018-06-01T15:02:26.880Z,38.77
2018-06-01T15:04:55.022Z,38.36
2018-06-01T15:07:23.196Z,39.32
2018-06-01T15:09:52.736Z,41.64
2018-06-01T15:12:23.890Z,44.32
2018-06-01T15:14:52.053Z,41.81
2018-06-01T15:17:20.228Z,41.09
2018-06-01T15:19:48.402Z,41.88
2018-06-01T15:22:16.547Z,43.03
2018-06-01T15:24:44.724Z,44.24
2018-06-01T15:27:12.871Z,38.29
2018-06-01T15:29:42.015Z,38.83
2018-06-01T15:32:10.203Z,39.08
2018-06-01T15:34:38.370Z,37.94
2018-06-01T15:37:06.539Z,38.88
2018-06-01T15:39:34.677Z,37.90
2018-06-01T15:42:02.853Z,39.00
2018-06-01T15:44:31.029Z,40.60
2018-06-01T15:46:59.190Z,39.25
2018-06-01T15:49:28.604Z,39.28
2018-06-01T15:51:56.759Z,41.21
2018-06-01T15:54:24.930Z,40.85
2018-06-01T15:56:53.114Z,39.18
2018-06-01T15:59:21.268Z,41.18
2018-06-01T16:01:49.434Z,41.70
2018-06-01T16:04:17.621Z,43.21
2018-06-01T16:06:45.783Z,43.57
2018-06-01T16:11:46.768Z,43.20
2018-06-01T16:14:14.957Z,43.03
2018-06-01T16:16:43.622Z,44.46
2018-06-01T16:19:11.791Z,43.13
2018-06-01T16:21:40.474Z,42.34
2018-06-01T16:24:08.652Z,43.97
2018-06-01T16:26:36.809Z,46.74
2018-06-01T16:29:04.973Z,45.11
2018-06-01T16:31:33.168Z,45.08
2018-06-01T16:34:01.321Z,43.67
2018-06-01T16:36:29.494Z,44.97
2018-06-01T16:38:57.675Z,49.19
2018-06-01T16:41:25.845Z,50.96
2018-06-01T16:44:00.958Z,49.07
2018-06-01T16:46:29.117Z,48.78
2018-06-01T16:48:57.303Z,46.92
2018-06-01T16:51:25.507Z,48.62
2018-06-01T16:53:53.656Z,47.62
2018-06-01T16:56:21.873Z,49.59
2018-06-01T16:58:50.020Z,51.75
2018-06-01T17:01:18.179Z,51.86
2018-06-01T17:03:46.333Z,51.23
2018-06-01T17:06:14.483Z,52.79
2018-06-01T17:08:42.659Z,52.46
2018-06-01T17:11:10.810Z,51.89
2018-06-01T17:13:38.993Z,51.04
2018-06-01T17:16:08.509Z,50.99
2018-06-01T17:18:36.706Z,51.29
2018-06-01T17:21:04.859Z,50.67
2018-06-01T17:23:33.031Z,51.06
2018-06-01T17:26:01.207Z,51.99
2018-06-01T17:28:29.393Z,50.31
2018-06-01T17:30:57.569Z,51.64
2018-06-01T17:33:25.719Z,51.96
2018-06-01T17:35:53.920Z,51.92
2018-06-01T17:38:22.741Z,53.38
2018-06-01T17:40:50.906Z,53.65
2018-06-01T17:43:19.066Z,53.21
2018-06-01T17:45:47.222Z,54.24
2018-06-01T17:48:15.417Z,55.70
2018-06-01T17:50:45.597Z,52.76
2018-06-01T17:53:14.587Z,53.71
2018-06-01T17:55:42.753Z,54.70
2018-06-01T17:58:10.927Z,54.80
2018-06-01T18:00:39.128Z,55.78
2018-06-01T18:03:07.319Z,56.49
2018-06-01T18:05:35.471Z,57.07
2018-06-01T18:08:03.654Z,56.21
2018-06-01T18:10:31.813Z,56.91
2018-06-01T18:12:59.989Z,55.74
2018-06-01T18:15:28.204Z,55.38
2018-06-01T18:17:56.343Z,56.48
2018-06-01T18:20:24.513Z,56.78
2018-06-01T18:22:52.683Z,56.44
2018-06-01T18:25:20.859Z,56.34
2018-06-01T18:27:49.053Z,56.56
2018-06-01T18:30:17.193Z,57.29
2018-06-01T18:32:45.363Z,57.93
2018-06-01T18:35:14.387Z,58.21
2018-06-01T18:37:42.552Z,58.39
2018-06-01T18:40:11.489Z,59.45
2018-06-01T18:42:40.551Z,59.83
2018-06-01T18:45:08.707Z,59.00
2018-06-01T18:47:36.898Z,61.13
2018-06-01T18:50:05.212Z,60.02
2018-06-01T18:52:33.355Z,61.19
2018-06-01T18:55:01.537Z,61.11
2018-06-01T18:57:29.705Z,61.16
2018-06-01T18:59:57.886Z,61.65
2018-06-01T19:02:26.023Z,61.82
2018-06-01T19:04:54.238Z,62.75
2018-06-01T19:07:22.418Z,63.03
2018-06-01T19:09:50.581Z,62.60
2018-06-01T19:12:18.737Z,63.03
2018-06-01T19:14:46.932Z,63.88
2018-06-01T19:17:15.149Z,63.08
2018-06-01T19:19:43.314Z,62.73
2018-06-01T19:22:11.471Z,63.16
2018-06-01T19:24:39.738Z,62.81
2018-06-01T19:27:08.560Z,62.87
2018-06-01T19:29:37.459Z,63.79
2018-06-01T19:32:05.648Z,64.38
2018-06-01T19:34:33.885Z,64.69
2018-06-01T19:37:02.029Z,65.03
2018-06-01T19:39:38.377Z,66.44
2018-06-01T19:42:06.517Z,66.65
2018-06-01T19:44:34.699Z,67.11
2018-06-01T19:47:03.038Z,68.00
2018-06-01T19:49:31.200Z,68.48
2018-06-01T19:51:59.399Z,68.49
2018-06-01T19:54:27.585Z,69.20
2018-06-01T19:56:55.761Z,69.35
2018-06-01T19:59:23.985Z,70.45
2018-06-01T20:01:52.105Z,70.61
2018-06-01T20:04:20.268Z,70.55
2018-06-01T20:06:48.436Z,71.09
2018-06-01T20:09:16.607Z,71.53
2018-06-01T20:11:44.786Z,71.60
2018-06-01T20:14:13.026Z,72.24
2018-06-01T20:16:41.187Z,72.33
2018-06-01T20:19:15.900Z,73.17
2018-06-01T20:21:44.072Z,73.81
2018-06-01T20:24:12.810Z,74.12
2018-06-01T20:26:41.016Z,74.11
2018-06-01T20:29:11.691Z,74.44
2018-06-01T20:31:39.884Z,74.34
2018-06-01T20:34:08.062Z,74.83
2018-06-01T20:36:36.233Z,74.82
2018-06-01T20:39:04.415Z,75.66
2018-06-01T20:41:33.228Z,75.58
2018-06-01T20:44:01.425Z,76.01
2018-06-01T20:46:29.570Z,76.23
2018-06-01T20:48:57.730Z,76.41
2018-06-01T20:51:25.909Z,76.46
2018-06-01T20:53:54.082Z,76.35
2018-06-01T20:56:22.240Z,76.50
2018-06-01T20:58:50.403Z,76.52
2018-06-01T21:01:18.652Z,76.61
2018-06-01T21:03:46.795Z,76.59
2018-06-01T21:06:14.976Z,76.71
2018-06-01T21:08:43.142Z,76.63
2018-06-01T21:11:12.023Z,77.04
2018-06-01T21:13:40.820Z,77.27
2018-06-01T21:16:09.010Z,78.02
2018-06-01T21:18:37.255Z,78.50
2018-06-01T21:21:05.514Z,78.65
2018-06-01T21:23:33.710Z,78.78
2018-06-01T21:26:01.886Z,78.75
2018-06-01T21:28:30.068Z,79.01
2018-06-01T21:30:58.268Z,79.31
2018-06-01T21:33:27.526Z,79.25
2018-06-01T21:35:55.699Z,79.36
2018-06-01T21:38:23.867Z,79.65
2018-06-01T21:40:52.056Z,79.84
2018-06-01T21:43:20.227Z,79.82
2018-06-01T21:45:48.393Z,79.95
2018-06-01T21:48:19.714Z,79.67
2018-06-01T21:50:47.922Z,79.70
2018-06-01T21:53:16.076Z,79.99
2018-06-01T21:55:44.267Z,80.21
2018-06-01T21:58:12.456Z,80.26
2018-06-01T22:00:40.701Z,80.21
2018-06-01T22:03:08.888Z,80.63
2018-06-01T22:05:37.052Z,80.54
2018-06-01T22:08:05.495Z,80.75
2018-06-01T22:10:33.656Z,80.62
2018-06-01T22:13:01.837Z,81.00
2018-06-01T22:15:30.036Z,81.09
2018-06-01T22:17:58.688Z,81.42
2018-06-01T22:20:26.846Z,81.46
2018-06-01T22:22:55.006Z,81.41
2018-06-01T22:25:24.666Z,81.62
2018-06-01T22:27:52.895Z,81.68
2018-06-01T22:30:21.244Z,81.76
2018-06-01T22:32:49.437Z,81.94
2018-06-01T22:35:17.636Z,82.41
2018-06-01T22:37:45.797Z,82.55
2018-06-01T22:40:13.974Z,82.24
2018-06-01T22:42:42.135Z,82.36
2018-06-01T22:45:13.756Z,82.38
2018-06-01T22:47:41.934Z,82.47
2018-06-01T22:50:10.094Z,82.26
2018-06-01T22:52:38.288Z,82.42
2018-06-01T22:55:06.456Z,82.78
2018-06-01T22:57:34.640Z,83.69
2018-06-01T23:00:02.793Z,82.65
2018-06-01T23:02:30.969Z,82.00
2018-06-01T23:04:59.126Z,81.87
2018-06-01T23:07:27.334Z,81.14
2018-06-01T23:09:55.496Z,81.52
2018-06-01T23:12:23.660Z,81.08
2018-06-01T23:14:51.826Z,80.83
2018-06-01T23:17:19.997Z,80.89
2018-06-01T23:19:48.213Z,81.00
2018-06-01T23:22:17.101Z,80.25
2018-06-01T23:24:45.324Z,80.15
2018-06-01T23:27:13.482Z,80.00
2018-06-01T23:29:41.660Z,79.83
